createdAt,value
2024-03-07T00:03:13.082Z,11.90
2024-03-07T00:08:14.922Z,10.93
2024-03-07T00:13:16.951Z,11.13
2024-03-07T00:18:18.688Z,11.37
2024-03-07T00:23:20.479Z,11.03
2024-03-07T00:28:22.202Z,10.77
2024-03-07T00:33:23.999Z,12.23
2024-03-07T00:38:25.780Z,11.87
2024-03-07T00:43:27.632Z,10.97
2024-03-07T00:48:30.879Z,9.77
2024-03-07T00:53:32.718Z,10.13
2024-03-07T00:58:35.644Z,10.53
2024-03-07T01:03:38.504Z,11.03
2024-03-07T01:08:40.569Z,10.17
2024-03-07T01:13:43.113Z,10.00
2024-03-07T01:18:44.811Z,11.30
2024-03-07T01:23:46.552Z,10.23
2024-03-07T01:28:48.602Z,10.20
2024-03-07T01:33:50.614Z,9.83
2024-03-07T01:38:52.910Z,10.53
2024-03-07T01:43:54.838Z,9.27
2024-03-07T01:48:57.025Z,10.07
2024-03-07T01:53:58.880Z,11.57
2024-03-07T01:59:02.854Z,12.27
2024-03-07T02:04:05.380Z,10.30
2024-03-07T02:09:08.114Z,9.90
2024-03-07T02:14:09.911Z,10.20
2024-03-07T02:19:16.465Z,11.63
2024-03-07T02:24:18.198Z,9.63
2024-03-07T02:29:20.747Z,10.00
2024-03-07T02:34:22.494Z,9.43
2024-03-07T02:39:25.981Z,9.33
2024-03-07T02:44:27.806Z,10.40
2024-03-07T02:49:29.464Z,9.47
2024-03-07T02:54:31.314Z,9.23
2024-03-07T02:59:33.305Z,9.43
2024-03-07T03:04:35.138Z,9.47
2024-03-07T03:09:40.918Z,10.80
2024-03-07T03:14:44.486Z,8.70
2024-03-07T03:19:51.025Z,9.33
2024-03-07T03:24:56.462Z,9.53
2024-03-07T03:29:58.251Z,10.17
2024-03-07T03:34:59.985Z,10.97
2024-03-07T03:40:01.773Z,10.00
2024-03-07T03:45:07.357Z,9.60
2024-03-07T03:50:11.283Z,10.30
2024-03-07T03:55:13.872Z,11.23
2024-03-07T04:00:15.886Z,10.93
2024-03-07T04:05:20.104Z,11.57
2024-03-07T04:10:23.374Z,10.57
2024-03-07T04:15:27.926Z,10.87
2024-03-07T04:20:29.649Z,10.20
2024-03-07T04:25:32.278Z,9.73
2024-03-07T04:30:33.990Z,11.07
2024-03-07T04:35:35.680Z,13.03
2024-03-07T04:40:37.363Z,16.60
2024-03-07T04:45:39.485Z,12.83
2024-03-07T04:50:41.190Z,11.87
2024-03-07T04:55:42.842Z,12.97
2024-03-07T05:00:44.518Z,13.97
2024-03-07T05:05:46.666Z,14.20
2024-03-07T05:10:48.511Z,16.60
2024-03-07T05:15:51.796Z,17.03
2024-03-07T05:20:55.960Z,14.30
2024-03-07T05:25:58.326Z,13.77
2024-03-07T05:31:00.012Z,14.83
2024-03-07T05:36:15.588Z,14.70
2024-03-07T05:41:17.335Z,14.17
2024-03-07T05:46:19.021Z,16.23
2024-03-07T05:51:20.684Z,17.33
2024-03-07T05:56:22.354Z,16.17
2024-03-07T06:01:26.744Z,21.30
2024-03-07T06:06:28.845Z,21.30
2024-03-07T06:11:30.907Z,26.60
2024-03-07T06:16:39.896Z,25.63
2024-03-07T06:21:44.560Z,25.90
2024-03-07T06:26:47.203Z,27.17
2024-03-07T06:31:49.573Z,27.77
2024-03-07T06:36:51.281Z,29.03
2024-03-07T06:41:53.097Z,30.47
2024-03-07T06:46:54.804Z,27.67
2024-03-07T06:51:57.166Z,29.80
2024-03-07T06:56:58.867Z,27.97
2024-03-07T07:02:00.730Z,31.60
2024-03-07T07:07:02.484Z,31.07
2024-03-07T07:12:04.670Z,28.50
2024-03-07T07:17:09.400Z,31.53
2024-03-07T07:22:12.711Z,29.47
2024-03-07T07:27:14.519Z,33.30
2024-03-07T07:32:16.241Z,38.40
2024-03-07T07:37:18.011Z,37.47
2024-03-07T07:42:19.700Z,40.37
2024-03-07T07:47:21.462Z,37.70
2024-03-07T07:52:23.134Z,41.80
2024-03-07T07:57:24.929Z,40.47
2024-03-07T08:02:26.629Z,35.97
2024-03-07T08:07:28.300Z,37.33
2024-03-07T08:12:30.041Z,39.40
2024-03-07T08:17:32.533Z,34.00
2024-03-07T08:22:35.634Z,33.60
2024-03-07T08:27:38.679Z,35.57
2024-03-07T08:32:45.945Z,37.87
2024-03-07T08:37:53.961Z,39.20
2024-03-07T08:42:56.323Z,42.37
2024-03-07T08:47:59.737Z,43.73
2024-03-07T08:53:02.498Z,39.40
2024-03-07T08:58:04.420Z,45.57
2024-03-07T09:03:10.563Z,48.13
2024-03-07T09:08:13.699Z,48.67
2024-03-07T09:13:15.899Z,46.60
2024-03-07T09:18:17.660Z,47.87
2024-03-07T09:23:19.493Z,54.43
2024-03-07T09:28:21.201Z,54.53
2024-03-07T09:33:24.290Z,58.40
2024-03-07T09:38:28.836Z,60.13
2024-03-07T09:43:32.663Z,55.70
2024-03-07T09:48:35.614Z,48.47
2024-03-07T09:53:38.597Z,52.93
2024-03-07T09:58:42.265Z,50.07
2024-03-07T10:03:45.961Z,44.73
2024-03-07T10:08:48.209Z,49.27
2024-03-07T10:13:50.765Z,54.27
2024-03-07T10:18:52.568Z,48.67
2024-03-07T10:24:10.413Z,49.10
2024-03-07T10:29:12.110Z,51.27
2024-03-07T10:34:14.323Z,55.87
2024-03-07T10:39:15.992Z,55.33
2024-03-07T10:44:25.136Z,57.67
2024-03-07T10:49:29.840Z,54.77
2024-03-07T10:54:50.207Z,56.70
2024-03-07T11:00:01.890Z,63.27
2024-03-07T11:05:09.108Z,56.07
2024-03-07T11:10:12.903Z,54.50
2024-03-07T11:15:16.366Z,51.07
2024-03-07T11:20:26.189Z,52.83
2024-03-07T11:25:28.823Z,55.40
2024-03-07T11:30:30.602Z,49.43
2024-03-07T11:35:35.627Z,46.50
2024-03-07T11:40:40.340Z,46.30
2024-03-07T11:45:46.234Z,45.43
2024-03-07T11:50:48.381Z,43.97
2024-03-07T11:55:52.070Z,46.53
2024-03-07T12:00:54.201Z,40.93
2024-03-07T12:05:56.178Z,44.13
2024-03-07T12:10:59.040Z,38.83
2024-03-07T12:16:01.759Z,39.27
2024-03-07T12:21:07.784Z,40.43
2024-03-07T12:26:11.958Z,40.93
2024-03-07T12:31:17.912Z,37.73
2024-03-07T12:36:22.979Z,45.33
2024-03-07T12:41:25.180Z,41.17
2024-03-07T12:46:29.820Z,41.60
2024-03-07T12:51:31.530Z,45.20
2024-03-07T12:56:35.839Z,50.50
2024-03-07T13:01:45.588Z,52.00
2024-03-07T13:06:48.644Z,50.10
2024-03-07T13:11:50.371Z,56.13
2024-03-07T13:16:52.146Z,49.63
2024-03-07T13:21:54.746Z,52.70
2024-03-07T13:26:56.521Z,59.37
2024-03-07T13:31:58.218Z,55.33
2024-03-07T13:37:02.211Z,55.27
2024-03-07T13:42:06.057Z,95.37
2024-03-07T13:47:08.175Z,57.13
2024-03-07T13:52:19.644Z,55.33
2024-03-07T13:57:44.346Z,70.50
2024-03-07T14:03:19.858Z,59.90
2024-03-07T14:09:09.138Z,55.77
2024-03-07T14:14:39.388Z,54.73
2024-03-07T14:20:20.393Z,51.10
2024-03-07T14:25:45.122Z,50.93
2024-03-07T14:30:55.364Z,48.97
2024-03-07T14:36:15.212Z,51.87
2024-03-07T14:41:20.419Z,49.63
2024-03-07T14:46:22.507Z,51.10
2024-03-07T14:51:25.500Z,45.67
2024-03-07T14:56:27.314Z,49.27
2024-03-07T15:01:31.876Z,50.37
2024-03-07T15:06:37.141Z,48.53
2024-03-07T15:11:41.870Z,51.57
2024-03-07T15:16:43.751Z,49.03
2024-03-07T15:21:45.570Z,55.83
2024-03-07T15:26:48.565Z,59.83
2024-03-07T15:31:50.878Z,55.13
2024-03-07T15:37:02.530Z,65.27
2024-03-07T15:42:04.682Z,62.83
2024-03-07T15:47:08.797Z,63.77
2024-03-07T15:52:10.736Z,63.90
2024-03-07T15:57:12.471Z,61.13
2024-03-07T16:02:15.624Z,62.67
2024-03-07T16:07:17.524Z,68.47
2024-03-07T16:12:19.541Z,62.53
2024-03-07T16:17:21.558Z,68.03
2024-03-07T16:22:23.835Z,65.23
2024-03-07T16:27:25.510Z,58.83
2024-03-07T16:32:28.262Z,47.20
2024-03-07T16:37:30.049Z,39.60
2024-03-07T16:42:32.124Z,42.27
2024-03-07T16:47:38.654Z,26.47
2024-03-07T16:52:40.775Z,29.37
2024-03-07T16:57:44.097Z,29.93
2024-03-07T17:02:46.136Z,25.00
2024-03-07T17:07:48.529Z,26.03
2024-03-07T17:12:51.986Z,26.67
2024-03-07T17:17:54.608Z,25.20
2024-03-07T17:22:56.457Z,23.30
2024-03-07T17:27:58.588Z,24.87
2024-03-07T17:33:01.660Z,24.27
2024-03-07T17:38:03.980Z,25.53
2024-03-07T17:43:05.929Z,23.07
2024-03-07T17:48:09.323Z,30.20
2024-03-07T17:53:14.820Z,23.33
2024-03-07T17:58:20.884Z,27.47
2024-03-07T18:03:23.243Z,25.33
2024-03-07T18:08:35.646Z,27.50
2024-03-07T18:13:44.734Z,26.47
2024-03-07T18:18:51.105Z,32.83
2024-03-07T18:23:54.992Z,32.00
2024-03-07T18:28:56.905Z,26.93
2024-03-07T18:33:59.234Z,31.80
2024-03-07T18:39:02.476Z,29.60
2024-03-07T18:44:04.499Z,32.03
2024-03-07T18:49:11.052Z,29.80
2024-03-07T18:54:15.156Z,32.33
2024-03-07T18:59:16.887Z,34.10
2024-03-07T19:04:20.133Z,43.60
2024-03-07T19:09:23.364Z,35.10
2024-03-07T19:14:25.164Z,34.17
2024-03-07T19:19:29.985Z,37.63
2024-03-07T19:24:31.647Z,37.40
2024-03-07T19:29:33.532Z,38.93
2024-03-07T19:34:35.269Z,36.60
2024-03-07T19:39:37.110Z,37.60
2024-03-07T19:44:45.457Z,35.70
2024-03-07T19:49:48.074Z,37.27
2024-03-07T19:54:49.767Z,36.03
2024-03-07T19:59:52.938Z,34.43
2024-03-07T20:04:54.722Z,41.20
2024-03-07T20:09:56.552Z,40.90
2024-03-07T20:14:58.287Z,40.37
2024-03-07T20:20:00.199Z,40.83
2024-03-07T20:25:01.870Z,41.03
2024-03-07T20:30:03.921Z,39.60
2024-03-07T20:35:09.369Z,40.13
2024-03-07T20:40:14.533Z,39.17
2024-03-07T20:45:16.560Z,34.50
2024-03-07T20:50:22.199Z,34.20
2024-03-07T20:55:24.570Z,38.60
2024-03-07T21:00:28.548Z,39.20
2024-03-07T21:05:33.236Z,37.73
2024-03-07T21:10:36.168Z,39.53
2024-03-07T21:15:38.717Z,39.30
2024-03-07T21:20:43.349Z,39.00
2024-03-07T21:25:45.279Z,39.53
2024-03-07T21:30:49.401Z,39.10
2024-03-07T21:35:51.125Z,33.73
2024-03-07T21:40:53.411Z,37.87
2024-03-07T21:45:55.444Z,40.30
2024-03-07T21:50:59.122Z,35.73
2024-03-07T21:56:02.969Z,35.43
2024-03-07T22:01:09.832Z,33.17
2024-03-07T22:06:11.881Z,37.70
2024-03-07T22:11:16.544Z,36.30
2024-03-07T22:16:18.392Z,40.87
2024-03-07T22:21:20.077Z,40.70
2024-03-07T22:26:22.322Z,37.27
2024-03-07T22:31:24.013Z,44.23
2024-03-07T22:36:27.769Z,34.13
2024-03-07T22:41:29.474Z,33.10
2024-03-07T22:46:32.422Z,32.67
2024-03-07T22:51:35.252Z,33.60
2024-03-07T22:56:37.158Z,37.87
2024-03-07T23:01:39.934Z,34.70
2024-03-07T23:06:41.817Z,35.87
2024-03-07T23:11:43.777Z,35.90
2024-03-07T23:16:46.203Z,37.00
2024-03-07T23:21:47.861Z,38.80
2024-03-07T23:26:53.129Z,39.57
2024-03-07T23:31:54.999Z,36.73
2024-03-07T23:36:56.930Z,37.53
2024-03-07T23:41:58.635Z,34.60
2024-03-07T23:47:01.154Z,34.47
2024-03-07T23:52:02.818Z,36.43
2024-03-07T23:57:05.355Z,36.83
